Memphis International Airport
KMEM : now visible

Airfield :











YOU CAN JOIN US ON...

 
LOGIN :

Register | Disclaimer

   EN    FR    IT 

 









Legend :    VFR   Marginal VFR   IFR   Intensive IFR   Very Intensive IFR
Visi :
Ceiling :
>= 8 km
>= 3000ft
5 to 8 km
1000 to 3000 ft
1500m to 5 km
500 to 1000 ft
800 to 1500m
200 to 500 ft
< 800m
< 200 ft
Symbols :   Thunderstorms  Fog  Heavy snow  Heavy precipitations  Wind > 20 kt







- Airport Elevation : 341 ft
- IATA code : MEM


KMEM - Memphis International

CURRENT METAR :
  • 270354Z 19003KT 10SM SCT250 26/18 A3004 RMK AO2 SLP169 T02610178 $

EXPIRED METARs :
  • 270254Z 00000KT 10SM BKN250 28/17 A3003 RMK AO2 SLP163 T02780167 55000 $
  • 270154Z 20004KT 10SM BKN250 28/19 A3002 RMK AO2 SLP162 T02780189 $

TAF KMEM
Valid from the 27 at 03:00 until the 28 at 06:00 UTC


270259Z 2703/2806 19004KT P6SM BKN250
FM271600 20012G18KT P6SM FEW050 SCT250
FM280100 19008KT P6SM FEW250
KZME FIR / North America



MET'MAP, your aeronautical weather chart ! - Copyright ORBIFLY December 2007 - Disclaimer

ORBIFLY MET'MAP TEAM :

Programming & Development : Alexandra Zaïnal
Concept & Development : Baudouin d'Aumeries
Co-Development & Prog : Marc-Olivier Méhu
Technical & hardware support : Manuel Goepfert

Contact : metmap@orbifly.com




SOURCES & CREDITS :

   NOAA       Earth
Advisory